Celebrity Solstice — 9HRJ9 — position and weather

sailwx.info

Track history (hours):
 
Tides and Currents Weather Stations Pressure Air Temp Water Temp Dewpoint Dewpoint Depression Visibility Wind Speed Wind Dir Waves Ship Positions

Celebrity Solstice

Last reported at 2017-Feb-19 12:00 UTC. Time now 2017-Feb-19 18:41 UTC.
Position S 39°18' E 177°54'.

Length 317 m; draft 9 m.

Type: Ship. MMSI: 249409000.

Wind from 070 at 22 knots

Barometer 1027.0 mb
Air temperature 20.2 ° C
Visibility: greater than 10.8 NM
Water temperature 21.6 ° C

Date/timePositionNaut miles runAvg speedWind from/ knotsBaromVisibWave heightAir tempDewpointWater temp
2017-Feb-19 12:00S 39°18' E 177°54'109 9.1 070 / 221027.010.8 20.2 21.6
2017-Feb-19 00:00S 37°36' E 178°42'87 7.2 170 / 111024.0 2.2 20.1 23.3
2017-Feb-18 12:00S 37°24' E 176°54'34 7.5 060 / 221020.0 5.4 21.616.023.6
2017-Feb-18 07:25S 37°34' E 176°13'5 3.5
2017-Feb-18 06:05S 37°38' E 176°11'0 0.0
2017-Feb-18 05:33S 37°38' E 176°11'0 0.0
2017-Feb-17 23:23S 37°38' E 176°11'0 0.0
2017-Feb-17 19:32S 37°38' E 176°11'0 0.0
2017-Feb-17 18:33S 37°39' E 176°11'7 6.9
2017-Feb-17 17:29S 37°31' E 176°12'8111.6
2017-Feb-17 10:33S 36°25' E 175°14'1010.3
2017-Feb-17 09:33S 36°32' E 175°05'1010.0
2017-Feb-17 08:33S 36°39' E 174°56'1010.1
2017-Feb-17 07:33S 36°47' E 174°48'4 2.9
2017-Feb-17 06:15S 36°50' E 174°46'0 0.0
2017-Feb-17 05:15S 36°50' E 174°46'0 0.0
2017-Feb-17 03:27S 36°50' E 174°46'0 0.0
2017-Feb-17 02:33S 36°50' E 174°46'0 0.0
2017-Feb-17 01:33S 36°50' E 174°46'4 7.1
2017-Feb-17 01:00S 36°48' E 174°42'4 9.0 100 / 51016.027.0 21.5 23.8
2017-Feb-17 00:33S 36°50' E 174°46'0 0.0
2017-Feb-16 23:33S 36°50' E 174°46'0 0.0
2017-Feb-16 22:33S 36°50' E 174°46'0 0.0
2017-Feb-16 21:33S 36°50' E 174°46'0 0.0
2017-Feb-16 20:33S 36°50' E 174°46'0 0.0
2017-Feb-16 19:21S 36°50' E 174°46'0 0.0
2017-Feb-16 18:33S 36°50' E 174°46'0 0.0
2017-Feb-16 17:33S 36°50' E 174°46'0 0.2
2017-Feb-16 16:33S 36°50' E 174°46'7 6.8
2017-Feb-16 15:33S 36°44' E 174°51'10 9.7
2017-Feb-16 14:33S 36°37' E 174°58'9 9.4
2017-Feb-16 13:33S 36°27' E 175°00'1010.1
2017-Feb-16 12:33S 36°18' E 174°57'1831.6
2017-Feb-16 12:00S 36°00' E 174°54'36 1.5 040 / 81015.010.8 21.1 23.1
2017-Feb-15 12:20S 35°52' E 175°37'412.4
2017-Feb-15 12:00S 35°54' E 175°42'1121.2 170 / 101016.0 19.7 23.2
2017-Feb-15 11:29S 36°04' E 175°47'8716.0
2017-Feb-15 06:05S 37°28' E 176°11'814.4
2017-Feb-15 05:33S 37°36' E 176°11'3 2.6
2017-Feb-15 04:32S 37°38' E 176°11'0 0.0
2017-Feb-15 03:32S 37°38' E 176°11'0 0.0
2017-Feb-15 02:32S 37°38' E 176°11'0 0.0
2017-Feb-15 01:32S 37°38' E 176°11'0 0.0
2017-Feb-15 00:32S 37°38' E 176°11'0 0.0
2017-Feb-14 23:32S 37°38' E 176°11'0 0.0
2017-Feb-14 22:32S 37°38' E 176°11'0 0.0
2017-Feb-14 21:32S 37°38' E 176°11'0 0.0
2017-Feb-14 20:32S 37°38' E 176°11'0 0.0
2017-Feb-14 19:32S 37°38' E 176°11'0 0.0
2017-Feb-14 18:32S 37°38' E 176°11'6 6.1
2017-Feb-14 17:33S 37°33' E 176°14'7012.6
2017-Feb-14 12:00S 37°24' E 177°42'49 9.8 260 / 51013.0 5.4 20.8 22.6
2017-Feb-14 07:00S 37°48' E 178°36'6713.5 320 / 331007.0 5.4 22.6 22.0
2017-Feb-14 02:00S 38°54' E 178°18'8612.2 290 / 161001.0 24.2 21.9
2017-Feb-13 19:00S 40°06' E 177°18'8311.8 260 / 41004.0 5.4 20.6 20.8
2017-Feb-13 12:00S 41°12' E 176°12'108 4.7 19.1
2017-Feb-12 13:00S 42°12' E 174°12'156 6.8 260 / 17 16.012.618.0
2017-Feb-11 14:00S 44°24' E 172°18'   030 / 19993.0 19.015.917.0
Track history (hours):
 
Tides and Currents Weather Stations Pressure Air Temp Water Temp Dewpoint Dewpoint Depression Visibility Wind Speed Wind Dir Waves Ship Positions

Celebrity Solstice

Last reported at 2017-Feb-19 12:00 UTC. Time now 2017-Feb-19 18:41 UTC.
Position S 39°18' E 177°54'.

Length 317 m; draft 9 m.

Type: Ship. MMSI: 249409000.

Wind from 070 at 22 knots

Barometer 1027.0 mb
Air temperature 20.2 ° C
Visibility: greater than 10.8 NM
Water temperature 21.6 ° C

Date/timePositionNaut miles runAvg speedWind from/ knotsBaromVisibWave heightAir tempDewpointWater temp
2017-Feb-19 12:00S 39°18' E 177°54'109 9.1 070 / 221027.010.8 20.2 21.6
2017-Feb-19 00:00S 37°36' E 178°42'87 7.2 170 / 111024.0 2.2 20.1 23.3
2017-Feb-18 12:00S 37°24' E 176°54'34 7.5 060 / 221020.0 5.4 21.616.023.6
2017-Feb-18 07:25S 37°34' E 176°13'5 3.5
2017-Feb-18 06:05S 37°38' E 176°11'0 0.0
2017-Feb-18 05:33S 37°38' E 176°11'0 0.0
2017-Feb-17 23:23S 37°38' E 176°11'0 0.0
2017-Feb-17 19:32S 37°38' E 176°11'0 0.0
2017-Feb-17 18:33S 37°39' E 176°11'7 6.9
2017-Feb-17 17:29S 37°31' E 176°12'8111.6
2017-Feb-17 10:33S 36°25' E 175°14'1010.3
2017-Feb-17 09:33S 36°32' E 175°05'1010.0
2017-Feb-17 08:33S 36°39' E 174°56'1010.1
2017-Feb-17 07:33S 36°47' E 174°48'4 2.9
2017-Feb-17 06:15S 36°50' E 174°46'0 0.0
2017-Feb-17 05:15S 36°50' E 174°46'0 0.0
2017-Feb-17 03:27S 36°50' E 174°46'0 0.0
2017-Feb-17 02:33S 36°50' E 174°46'0 0.0
2017-Feb-17 01:33S 36°50' E 174°46'4 7.1
2017-Feb-17 01:00S 36°48' E 174°42'4 9.0 100 / 51016.027.0 21.5 23.8
2017-Feb-17 00:33S 36°50' E 174°46'0 0.0
2017-Feb-16 23:33S 36°50' E 174°46'0 0.0
2017-Feb-16 22:33S 36°50' E 174°46'0 0.0
2017-Feb-16 21:33S 36°50' E 174°46'0 0.0
2017-Feb-16 20:33S 36°50' E 174°46'0 0.0
2017-Feb-16 19:21S 36°50' E 174°46'0 0.0
2017-Feb-16 18:33S 36°50' E 174°46'0 0.0
2017-Feb-16 17:33S 36°50' E 174°46'0 0.2
2017-Feb-16 16:33S 36°50' E 174°46'7 6.8
2017-Feb-16 15:33S 36°44' E 174°51'10 9.7
2017-Feb-16 14:33S 36°37' E 174°58'9 9.4
2017-Feb-16 13:33S 36°27' E 175°00'1010.1
2017-Feb-16 12:33S 36°18' E 174°57'1831.6
2017-Feb-16 12:00S 36°00' E 174°54'36 1.5 040 / 81015.010.8 21.1 23.1
2017-Feb-15 12:20S 35°52' E 175°37'412.4
2017-Feb-15 12:00S 35°54' E 175°42'1121.2 170 / 101016.0 19.7 23.2
2017-Feb-15 11:29S 36°04' E 175°47'8716.0
2017-Feb-15 06:05S 37°28' E 176°11'814.4
2017-Feb-15 05:33S 37°36' E 176°11'3 2.6
2017-Feb-15 04:32S 37°38' E 176°11'0 0.0
2017-Feb-15 03:32S 37°38' E 176°11'0 0.0
2017-Feb-15 02:32S 37°38' E 176°11'0 0.0
2017-Feb-15 01:32S 37°38' E 176°11'0 0.0
2017-Feb-15 00:32S 37°38' E 176°11'0 0.0
2017-Feb-14 23:32S 37°38' E 176°11'0 0.0
2017-Feb-14 22:32S 37°38' E 176°11'0 0.0
2017-Feb-14 21:32S 37°38' E 176°11'0 0.0
2017-Feb-14 20:32S 37°38' E 176°11'0 0.0
2017-Feb-14 19:32S 37°38' E 176°11'0 0.0
2017-Feb-14 18:32S 37°38' E 176°11'6 6.1
2017-Feb-14 17:33S 37°33' E 176°14'7012.6
2017-Feb-14 12:00S 37°24' E 177°42'49 9.8 260 / 51013.0 5.4 20.8 22.6
2017-Feb-14 07:00S 37°48' E 178°36'6713.5 320 / 331007.0 5.4 22.6 22.0
2017-Feb-14 02:00S 38°54' E 178°18'8612.2 290 / 161001.0 24.2 21.9
2017-Feb-13 19:00S 40°06' E 177°18'8311.8 260 / 41004.0 5.4 20.6 20.8
2017-Feb-13 12:00S 41°12' E 176°12'108 4.7 19.1
2017-Feb-12 13:00S 42°12' E 174°12'156 6.8 260 / 17 16.012.618.0
2017-Feb-11 14:00S 44°24' E 172°18'   030 / 19993.0 19.015.917.0

Dump ship's entire track history